Hayward — AEEA — position and weather

sailwx.info

Track history (hours):
 
Tides and Currents Weather Stations Pressure Air Temp Water Temp Dewpoint Dewpoint Depression Visibility Wind Speed Wind Dir Waves Ship Positions

Hayward

Last reported at 2018-Jan-22 19:45 UTC. Time now 2018-Jan-23 03:47 UTC.
Position N 40°41' W 074°04'.

Length 37 m; draft 2.7 m.

MMSI: 366999412.

Date/timePositionNaut miles runAvg speedWind from/ knotsBaromVisibWave heightAir tempDewpointWater temp
2018-Jan-22 19:45N 40°41' W 074°04'0 0.8
2018-Jan-22 19:30N 40°41' W 074°04'0 0.0
2018-Jan-22 19:00N 40°41' W 074°04'1 1.2
2018-Jan-22 18:30N 40°40' W 074°04'4 8.3
2018-Jan-22 18:00N 40°39' W 074°09'1 2.2
2018-Jan-22 17:30N 40°40' W 074°08'0 0.0
2018-Jan-22 17:00N 40°40' W 074°08'0 0.0
2018-Jan-22 16:30N 40°40' W 074°08'1 1.4
2018-Jan-22 16:00N 40°41' W 074°08'1 1.8
2018-Jan-22 15:29N 40°40' W 074°08'1 1.5
2018-Jan-22 15:00N 40°40' W 074°09'1 3.0
2018-Jan-22 14:30N 40°41' W 074°09'1 1.5
2018-Jan-22 14:00N 40°42' W 074°09'3 6.3
2018-Jan-22 13:30N 40°39' W 074°09'4 7.9
2018-Jan-22 12:59N 40°40' W 074°04'1 0.1
2018-Jan-21 19:42N 40°41' W 074°04'0 1.5
2018-Jan-21 19:30N 40°41' W 074°04'0 0.0
2018-Jan-21 19:00N 40°41' W 074°04'0 0.0
2018-Jan-21 18:30N 40°41' W 074°04'2 5.0
2018-Jan-21 18:00N 40°43' W 074°02'1 2.9
2018-Jan-21 17:30N 40°44' W 074°02'0 0.0
2018-Jan-21 16:59N 40°44' W 074°02'0 0.0
2018-Jan-21 16:30N 40°44' W 074°02'0 0.0
2018-Jan-21 16:00N 40°44' W 074°02'2 4.7
2018-Jan-21 15:30N 40°42' W 074°01'3 5.9
2018-Jan-21 15:00N 40°44' W 073°58'3 5.9
2018-Jan-21 14:30N 40°42' W 074°00'5 9.8
2018-Jan-21 14:00N 40°37' W 074°03'3 5.2
2018-Jan-21 13:30N 40°39' W 074°05'2 4.0
2018-Jan-21 13:00N 40°39' W 074°07'3 6.7
2018-Jan-21 12:30N 40°41' W 074°04'0 0.0
2018-Jan-20 19:41N 40°41' W 074°04'1 3.4
2018-Jan-20 19:30N 40°41' W 074°04'0 0.3
2018-Jan-20 19:00N 40°41' W 074°04'0 0.9
2018-Jan-20 18:30N 40°41' W 074°03'4 7.0
2018-Jan-20 17:58N 40°44' W 074°02'0 0.0
2018-Jan-20 17:29N 40°44' W 074°02'0 0.0
2018-Jan-20 16:58N 40°44' W 074°02'0 0.0
2018-Jan-20 16:30N 40°44' W 074°02'0 0.8
2018-Jan-20 16:00N 40°44' W 074°01'1 1.2
2018-Jan-20 15:30N 40°44' W 074°01'2 3.5
2018-Jan-20 15:00N 40°42' W 073°60'2 3.7
2018-Jan-20 14:30N 40°44' W 073°58'4 8.2
2018-Jan-20 14:00N 40°40' W 074°01'4 8.7
2018-Jan-20 13:30N 40°36' W 074°03'4 7.7
2018-Jan-20 13:00N 40°40' W 074°04'1 0.1
2018-Jan-19 19:54N 40°41' W 074°04'0 0.9
2018-Jan-19 19:30N 40°41' W 074°04'0 0.0
2018-Jan-19 19:00N 40°41' W 074°04'4 3.8
2018-Jan-19 18:00N 40°44' W 074°01'1 1.2
2018-Jan-19 17:30N 40°44' W 074°02'0 0.0
2018-Jan-19 16:59N 40°44' W 074°02'0 0.0
2018-Jan-19 16:30N 40°44' W 074°02'4 7.7
2018-Jan-19 16:00N 40°40' W 074°02'2 3.5
2018-Jan-19 15:30N 40°42' W 074°01'3 5.5
2018-Jan-19 15:00N 40°39' W 074°02'3 4.9
2018-Jan-19 14:29N 40°37' W 074°03'4 4.4
2018-Jan-19 13:29N 40°39' W 074°09'4 8.7
2018-Jan-19 13:00N 40°40' W 074°04'1 0.1
2018-Jan-18 19:53N 40°41' W 074°04'0 1.2
2018-Jan-18 19:30N 40°41' W 074°04'0 0.0
2018-Jan-18 19:00N 40°41' W 074°04'1 2.1
2018-Jan-18 18:30N 40°40' W 074°04'3 6.4
2018-Jan-18 18:00N 40°42' W 074°02'3 5.1
2018-Jan-18 17:30N 40°45' W 074°01'0 0.0
2018-Jan-18 16:57N 40°45' W 074°01'0 0.0
2018-Jan-18 16:30N 40°45' W 074°01'2 4.1
2018-Jan-18 16:00N 40°47' W 073°60'4 8.4
2018-Jan-18 15:30N 40°43' W 074°01'5 9.1
2018-Jan-18 15:00N 40°39' W 074°05'4 7.9
2018-Jan-18 14:30N 40°39' W 074°10'3 6.6
2018-Jan-18 14:00N 40°36' W 074°12'2 3.9
2018-Jan-18 13:29N 40°38' W 074°12'3 6.6
2018-Jan-18 13:00N 40°39' W 074°08'4 7.7
2018-Jan-18 12:30N 40°40' W 074°04'  
Track history (hours):
 
Tides and Currents Weather Stations Pressure Air Temp Water Temp Dewpoint Dewpoint Depression Visibility Wind Speed Wind Dir Waves Ship Positions

Hayward

Last reported at 2018-Jan-22 19:45 UTC. Time now 2018-Jan-23 03:47 UTC.
Position N 40°41' W 074°04'.

Length 37 m; draft 2.7 m.

MMSI: 366999412.

Date/timePositionNaut miles runAvg speedWind from/ knotsBaromVisibWave heightAir tempDewpointWater temp
2018-Jan-22 19:45N 40°41' W 074°04'0 0.8
2018-Jan-22 19:30N 40°41' W 074°04'0 0.0
2018-Jan-22 19:00N 40°41' W 074°04'1 1.2
2018-Jan-22 18:30N 40°40' W 074°04'4 8.3
2018-Jan-22 18:00N 40°39' W 074°09'1 2.2
2018-Jan-22 17:30N 40°40' W 074°08'0 0.0
2018-Jan-22 17:00N 40°40' W 074°08'0 0.0
2018-Jan-22 16:30N 40°40' W 074°08'1 1.4
2018-Jan-22 16:00N 40°41' W 074°08'1 1.8
2018-Jan-22 15:29N 40°40' W 074°08'1 1.5
2018-Jan-22 15:00N 40°40' W 074°09'1 3.0
2018-Jan-22 14:30N 40°41' W 074°09'1 1.5
2018-Jan-22 14:00N 40°42' W 074°09'3 6.3
2018-Jan-22 13:30N 40°39' W 074°09'4 7.9
2018-Jan-22 12:59N 40°40' W 074°04'1 0.1
2018-Jan-21 19:42N 40°41' W 074°04'0 1.5
2018-Jan-21 19:30N 40°41' W 074°04'0 0.0
2018-Jan-21 19:00N 40°41' W 074°04'0 0.0
2018-Jan-21 18:30N 40°41' W 074°04'2 5.0
2018-Jan-21 18:00N 40°43' W 074°02'1 2.9
2018-Jan-21 17:30N 40°44' W 074°02'0 0.0
2018-Jan-21 16:59N 40°44' W 074°02'0 0.0
2018-Jan-21 16:30N 40°44' W 074°02'0 0.0
2018-Jan-21 16:00N 40°44' W 074°02'2 4.7
2018-Jan-21 15:30N 40°42' W 074°01'3 5.9
2018-Jan-21 15:00N 40°44' W 073°58'3 5.9
2018-Jan-21 14:30N 40°42' W 074°00'5 9.8
2018-Jan-21 14:00N 40°37' W 074°03'3 5.2
2018-Jan-21 13:30N 40°39' W 074°05'2 4.0
2018-Jan-21 13:00N 40°39' W 074°07'3 6.7
2018-Jan-21 12:30N 40°41' W 074°04'0 0.0
2018-Jan-20 19:41N 40°41' W 074°04'1 3.4
2018-Jan-20 19:30N 40°41' W 074°04'0 0.3
2018-Jan-20 19:00N 40°41' W 074°04'0 0.9
2018-Jan-20 18:30N 40°41' W 074°03'4 7.0
2018-Jan-20 17:58N 40°44' W 074°02'0 0.0
2018-Jan-20 17:29N 40°44' W 074°02'0 0.0
2018-Jan-20 16:58N 40°44' W 074°02'0 0.0
2018-Jan-20 16:30N 40°44' W 074°02'0 0.8
2018-Jan-20 16:00N 40°44' W 074°01'1 1.2
2018-Jan-20 15:30N 40°44' W 074°01'2 3.5
2018-Jan-20 15:00N 40°42' W 073°60'2 3.7
2018-Jan-20 14:30N 40°44' W 073°58'4 8.2
2018-Jan-20 14:00N 40°40' W 074°01'4 8.7
2018-Jan-20 13:30N 40°36' W 074°03'4 7.7
2018-Jan-20 13:00N 40°40' W 074°04'1 0.1
2018-Jan-19 19:54N 40°41' W 074°04'0 0.9
2018-Jan-19 19:30N 40°41' W 074°04'0 0.0
2018-Jan-19 19:00N 40°41' W 074°04'4 3.8
2018-Jan-19 18:00N 40°44' W 074°01'1 1.2
2018-Jan-19 17:30N 40°44' W 074°02'0 0.0
2018-Jan-19 16:59N 40°44' W 074°02'0 0.0
2018-Jan-19 16:30N 40°44' W 074°02'4 7.7
2018-Jan-19 16:00N 40°40' W 074°02'2 3.5
2018-Jan-19 15:30N 40°42' W 074°01'3 5.5
2018-Jan-19 15:00N 40°39' W 074°02'3 4.9
2018-Jan-19 14:29N 40°37' W 074°03'4 4.4
2018-Jan-19 13:29N 40°39' W 074°09'4 8.7
2018-Jan-19 13:00N 40°40' W 074°04'1 0.1
2018-Jan-18 19:53N 40°41' W 074°04'0 1.2
2018-Jan-18 19:30N 40°41' W 074°04'0 0.0
2018-Jan-18 19:00N 40°41' W 074°04'1 2.1
2018-Jan-18 18:30N 40°40' W 074°04'3 6.4
2018-Jan-18 18:00N 40°42' W 074°02'3 5.1
2018-Jan-18 17:30N 40°45' W 074°01'0 0.0
2018-Jan-18 16:57N 40°45' W 074°01'0 0.0
2018-Jan-18 16:30N 40°45' W 074°01'2 4.1
2018-Jan-18 16:00N 40°47' W 073°60'4 8.4
2018-Jan-18 15:30N 40°43' W 074°01'5 9.1
2018-Jan-18 15:00N 40°39' W 074°05'4 7.9
2018-Jan-18 14:30N 40°39' W 074°10'3 6.6
2018-Jan-18 14:00N 40°36' W 074°12'2 3.9
2018-Jan-18 13:29N 40°38' W 074°12'3 6.6
2018-Jan-18 13:00N 40°39' W 074°08'4 7.7
2018-Jan-18 12:30N 40°40' W 074°04'  

Dump ship's entire track history